Time;durP1;ratioP1;P1;durP2;ratioP2;P2;SDS_P1;SDS_P2;PMS_P1;PMS_P2;Temp;Humidity;BMP_temperature;BMP_pressure;BME280_temperature;BME280_humidity;BME280_pressure;Samples;Min_cycle;Max_cycle;Signal;HPM_P1;HPM_P2
2022/12/29 00:03:03;;;;;;;12.90;6.90;;;5.70;99.90;;;;;;10038273;29;20214;-79
2022/12/29 00:08:39;;;;;;;6.60;4.70;;;5.70;99.90;;;;;;10021304;29;20266;-79
2022/12/29 00:36:43;;;;;;;10.90;5.10;;;5.70;99.90;;;;;;10011390;29;20198;-79
2022/12/29 00:47:52;;;;;;;13.97;5.53;;;5.70;99.90;;;;;;10040093;29;20312;-79
2022/12/29 00:53:14;;;;;;;10.20;4.70;;;5.70;99.90;;;;;;10025422;29;20540;-79
2022/12/29 00:58:35;;;;;;;13.43;7.03;;;5.70;99.90;;;;;;10042597;29;20245;-80
2022/12/29 01:03:56;;;;;;;7.50;4.20;;;5.70;99.90;;;;;;10077720;29;20213;-79
2022/12/29 01:15:01;;;;;;;8.07;5.47;;;5.70;99.90;;;;;;10039038;29;20448;-79
2022/12/29 01:20:22;;;;;;;12.13;4.37;;;5.70;99.90;;;;;;10026032;29;20201;-79
2022/12/29 01:25:44;;;;;;;7.77;6.20;;;5.70;99.90;;;;;;10052423;29;20248;-80
2022/12/29 01:31:05;;;;;;;3.03;2.73;;;5.70;99.90;;;;;;10041127;29;20279;-79
2022/12/29 01:36:26;;;;;;;4.17;3.30;;;5.70;99.90;;;;;;10027707;29;20426;-79
2022/12/29 01:41:47;;;;;;;5.30;4.03;;;5.70;99.90;;;;;;10016012;29;20249;-79
2022/12/29 01:47:09;;;;;;;5.53;3.83;;;5.70;99.90;;;;;;10004207;29;20286;-79
2022/12/29 01:52:34;;;;;;;10.73;4.40;;;5.70;99.90;;;;;;10034975;29;20244;-79
2022/12/29 01:57:58;;;;;;;4.90;3.73;;;5.70;99.90;;;;;;10041643;29;20237;-79
2022/12/29 02:03:22;;;;;;;6.57;5.73;;;5.70;99.90;;;;;;10053407;29;20209;-79
2022/12/29 02:08:45;;;;;;;5.63;4.60;;;5.70;99.90;;;;;;10027285;29;20233;-79
2022/12/29 02:14:10;;;;;;;4.47;3.83;;;5.60;99.90;;;;;;10003574;29;20199;-80
2022/12/29 02:19:50;;;;;;;6.40;3.60;;;5.60;99.90;;;;;;10002184;29;20210;-79
2022/12/29 02:25:42;;;;;;;4.00;3.53;;;5.70;99.90;;;;;;10059600;29;20232;-80
2022/12/29 02:31:34;;;;;;;6.57;3.83;;;5.60;99.90;;;;;;10052987;29;20244;-79
2022/12/29 02:37:20;;;;;;;3.77;3.47;;;5.60;99.90;;;;;;10045577;29;20527;-79
2022/12/29 02:43:01;;;;;;;4.97;4.47;;;5.60;99.90;;;;;;10032267;29;20269;-79
2022/12/29 02:48:29;;;;;;;6.90;5.10;;;5.70;99.90;;;;;;10007587;29;20241;-79
2022/12/29 02:59:32;;;;;;;8.23;4.73;;;5.60;99.90;;;;;;10031194;29;20293;-79
2022/12/29 03:05:21;;;;;;;7.10;4.97;;;5.70;99.90;;;;;;10045983;29;20230;-79
2022/12/29 03:17:01;;;;;;;5.47;4.80;;;5.60;99.90;;;;;;10081458;29;20288;-80
2022/12/29 03:22:27;;;;;;;7.43;6.33;;;5.60;99.90;;;;;;10067108;29;20217;-80
2022/12/29 03:27:59;;;;;;;9.43;5.40;;;5.50;99.90;;;;;;10053715;29;20245;-79
2022/12/29 03:33:25;;;;;;;9.23;7.07;;;5.50;99.90;;;;;;10080860;29;20217;-79
2022/12/29 03:38:55;;;;;;;8.67;7.37;;;5.50;99.90;;;;;;10060037;29;20224;-79
2022/12/29 03:44:16;;;;;;;13.37;11.00;;;5.50;99.90;;;;;;10026927;29;20416;-80
2022/12/29 03:49:39;;;;;;;13.93;8.70;;;5.60;99.90;;;;;;10013777;29;20228;-79
2022/12/29 03:55:01;;;;;;;12.07;7.93;;;5.50;99.90;;;;;;10034447;29;20251;-79
2022/12/29 04:00:23;;;;;;;17.00;10.07;;;5.50;99.90;;;;;;10044374;29;20213;-79
2022/12/29 04:05:44;;;;;;;14.73;12.40;;;5.50;99.90;;;;;;10043780;29;20228;-79
2022/12/29 04:11:06;;;;;;;16.00;12.23;;;5.40;99.90;;;;;;10006448;29;20460;-80
2022/12/29 04:16:28;;;;;;;15.70;14.10;;;5.50;99.90;;;;;;10006105;29;20218;-79
2022/12/29 04:21:49;;;;;;;19.23;12.67;;;5.50;99.90;;;;;;10030251;29;20242;-79
2022/12/29 04:27:11;;;;;;;13.03;8.87;;;5.50;99.90;;;;;;10047729;29;20269;-79
2022/12/29 04:32:51;;;;;;;18.27;10.03;;;5.50;99.90;;;;;;10043549;29;20208;-80
2022/12/29 04:38:13;;;;;;;13.13;8.97;;;5.50;99.90;;;;;;10042320;29;20228;-80
2022/12/29 04:43:35;;;;;;;16.10;9.60;;;5.50;99.90;;;;;;10044828;29;20563;-79
2022/12/29 04:49:28;;;;;;;14.20;8.97;;;5.50;99.90;;;;;;10106266;29;20249;-78
2022/12/29 04:55:09;;;;;;;12.00;9.13;;;5.50;99.90;;;;;;10093136;29;20220;-80
2022/12/29 05:00:30;;;;;;;16.33;9.23;;;5.40;99.90;;;;;;10103019;29;20204;-80
2022/12/29 05:05:56;;;;;;;14.13;8.60;;;5.40;99.90;;;;;;10102997;29;20244;-80
2022/12/29 05:11:17;;;;;;;12.47;8.37;;;5.40;99.90;;;;;;10116477;29;20467;-80
2022/12/29 05:16:41;;;;;;;14.07;8.83;;;5.40;99.90;;;;;;10140796;29;20220;-80
2022/12/29 05:22:02;;;;;;;17.33;8.77;;;5.40;99.90;;;;;;10112581;29;20263;-80
2022/12/29 05:27:24;;;;;;;15.73;11.20;;;5.40;99.90;;;;;;10052395;29;20281;-80
2022/12/29 05:33:06;;;;;;;19.00;13.20;;;5.40;99.90;;;;;;10114527;29;20577;-79
2022/12/29 05:38:28;;;;;;;22.00;12.40;;;5.40;99.90;;;;;;10113528;29;20220;-80
2022/12/29 05:43:49;;;;;;;16.77;10.23;;;5.40;99.90;;;;;;10115022;29;20230;-78
2022/12/29 05:49:31;;;;;;;13.80;9.03;;;5.40;99.90;;;;;;10111442;29;20565;-80
2022/12/29 05:55:01;;;;;;;11.00;8.37;;;5.40;99.90;;;;;;10076062;29;20256;-79
2022/12/29 06:00:24;;;;;;;13.20;8.10;;;5.40;99.90;;;;;;10105298;29;20216;-79
2022/12/29 06:05:46;;;;;;;11.50;7.73;;;5.40;99.90;;;;;;10086506;29;20464;-80
2022/12/29 06:11:09;;;;;;;13.27;8.70;;;5.40;99.90;;;;;;10015496;29;20251;-80
2022/12/29 06:16:31;;;;;;;16.47;10.73;;;5.40;99.90;;;;;;10015070;29;20230;-80
2022/12/29 06:21:55;;;;;;;11.73;8.20;;;5.40;99.90;;;;;;10058508;29;20208;-80
2022/12/29 06:27:16;;;;;;;11.50;8.30;;;5.40;99.90;;;;;;10051362;29;20323;-78
2022/12/29 06:32:38;;;;;;;19.87;11.27;;;5.40;99.90;;;;;;10060139;29;20205;-79
2022/12/29 06:38:02;;;;;;;14.33;10.03;;;5.40;99.90;;;;;;10045891;29;20225;-79
2022/12/29 06:43:23;;;;;;;20.20;17.00;;;5.50;99.90;;;;;;10046056;29;20548;-78
2022/12/29 06:48:53;;;;;;;18.40;11.63;;;5.50;99.90;;;;;;10059972;29;20231;-79
2022/12/29 06:54:14;;;;;;;16.07;9.43;;;5.50;99.90;;;;;;10046218;29;20499;-79
2022/12/29 06:59:35;;;;;;;14.63;8.87;;;5.60;99.90;;;;;;10047365;29;20205;-79
2022/12/29 07:04:56;;;;;;;17.17;9.30;;;5.60;99.90;;;;;;10047196;29;20522;-78
2022/12/29 07:10:17;;;;;;;23.43;17.23;;;5.60;99.90;;;;;;10017387;29;20210;-80
2022/12/29 07:15:38;;;;;;;21.57;11.83;;;5.70;99.90;;;;;;10022716;29;20205;-80
2022/12/29 07:20:59;;;;;;;19.43;12.63;;;5.70;99.90;;;;;;10010404;29;20211;-78
2022/12/29 07:26:20;;;;;;;12.63;8.10;;;5.70;99.90;;;;;;10034674;29;20258;-78
2022/12/29 07:31:41;;;;;;;17.20;11.27;;;5.80;99.90;;;;;;10045677;29;20193;-80
2022/12/29 07:37:02;;;;;;;14.63;10.13;;;5.80;99.90;;;;;;10043369;29;20292;-79
2022/12/29 07:42:23;;;;;;;32.57;18.37;;;5.80;99.90;;;;;;10044884;29;20302;-79
2022/12/29 07:47:49;;;;;;;34.13;15.77;;;5.80;99.90;;;;;;10045047;29;20392;-80
2022/12/29 07:53:10;;;;;;;31.03;20.30;;;5.90;99.90;;;;;;10057220;29;20516;-79
2022/12/29 07:58:31;;;;;;;23.27;13.47;;;5.90;99.90;;;;;;10045429;29;20201;-80
2022/12/29 08:03:52;;;;;;;33.50;18.10;;;6.00;99.90;;;;;;10044040;29;20283;-81
2022/12/29 08:09:16;;;;;;;25.83;12.03;;;6.00;99.90;;;;;;10036818;29;20282;-79
2022/12/29 08:14:41;;;;;;;19.90;10.80;;;6.10;99.90;;;;;;10006890;29;20225;-81
2022/12/29 08:20:03;;;;;;;16.43;9.13;;;6.10;99.90;;;;;;10006583;29;20214;-80
2022/12/29 08:25:24;;;;;;;10.17;6.80;;;6.10;99.90;;;;;;10048501;29;20224;-78
2022/12/29 08:30:45;;;;;;;10.77;6.50;;;6.20;99.90;;;;;;10015893;29;20212;-80
2022/12/29 08:36:07;;;;;;;20.73;11.73;;;6.20;99.90;;;;;;10012555;29;20261;-77
2022/12/29 08:41:28;;;;;;;20.37;12.27;;;6.30;99.90;;;;;;10018971;29;20268;-82
2022/12/29 08:46:50;;;;;;;16.90;13.63;;;6.30;99.90;;;;;;10038349;29;20233;-79
2022/12/29 08:52:11;;;;;;;19.70;11.60;;;6.40;99.90;;;;;;10006232;29;20254;-79
2022/12/29 08:57:32;;;;;;;13.87;8.13;;;6.60;99.90;;;;;;10036193;29;20260;-82
2022/12/29 09:03:01;;;;;;;13.53;8.80;;;6.50;99.90;;;;;;10039102;29;20211;-81
2022/12/29 09:08:22;;;;;;;16.43;9.47;;;6.60;99.90;;;;;;10034624;29;20256;-78
2022/12/29 09:13:46;;;;;;;19.77;10.47;;;6.60;99.90;;;;;;10037023;29;20486;-80
2022/12/29 09:19:07;;;;;;;19.30;10.73;;;6.60;99.90;;;;;;10051899;29;20293;-81
2022/12/29 09:24:48;;;;;;;14.53;7.87;;;6.60;99.90;;;;;;10035707;29;20446;-82
2022/12/29 09:30:11;;;;;;;18.97;9.53;;;6.60;99.90;;;;;;10021356;29;20273;-79
2022/12/29 09:35:33;;;;;;;17.70;9.67;;;6.60;99.90;;;;;;10050522;29;20221;-79
2022/12/29 09:40:56;;;;;;;18.73;11.50;;;6.60;99.90;;;;;;10037793;29;20246;-85
2022/12/29 09:46:25;;;;;;;17.53;9.87;;;6.70;99.90;;;;;;10015393;29;20237;-79
2022/12/29 09:51:52;;;;;;;14.90;9.27;;;6.70;99.90;;;;;;10014785;29;20525;-79
2022/12/29 09:57:21;;;;;;;14.07;8.03;;;6.80;99.90;;;;;;10020018;29;20206;-78
2022/12/29 10:02:48;;;;;;;10.67;6.37;;;6.80;99.90;;;;;;10034480;29;20203;-79
2022/12/29 10:08:36;;;;;;;14.93;7.97;;;6.90;99.90;;;;;;10013420;29;20250;-78
2022/12/29 10:14:07;;;;;;;15.47;9.43;;;7.00;99.90;;;;;;10036323;29;20269;-79
2022/12/29 10:19:56;;;;;;;11.47;7.50;;;7.00;99.90;;;;;;10034669;29;20222;-80
2022/12/29 10:25:24;;;;;;;13.00;6.67;;;7.20;99.90;;;;;;10033450;29;20219;-79
2022/12/29 10:30:49;;;;;;;18.93;9.93;;;7.30;99.90;;;;;;10012957;29;20535;-79
2022/12/29 10:36:18;;;;;;;12.87;6.77;;;7.30;99.90;;;;;;10031526;29;20203;-80
2022/12/29 10:41:50;;;;;;;12.97;7.70;;;7.50;99.90;;;;;;10024237;29;20272;-80
2022/12/29 10:47:18;;;;;;;14.07;7.47;;;7.60;99.90;;;;;;10034778;29;20502;-83
2022/12/29 10:52:40;;;;;;;15.17;7.67;;;7.50;99.90;;;;;;10030386;29;20238;-80
2022/12/29 10:58:05;;;;;;;10.20;6.53;;;7.50;99.90;;;;;;10047078;29;20520;-79
2022/12/29 11:03:58;;;;;;;9.93;5.23;;;7.50;99.90;;;;;;10048856;29;20210;-82
2022/12/29 11:09:27;;;;;;;12.47;9.60;;;7.50;99.90;;;;;;10024650;29;20556;-80
2022/12/29 11:15:01;;;;;;;33.33;16.27;;;7.50;99.90;;;;;;10026229;29;20215;-79
2022/12/29 11:20:37;;;;;;;13.00;8.27;;;7.40;99.90;;;;;;10017614;29;20214;-78
2022/12/29 11:26:16;;;;;;;25.37;12.80;;;7.30;99.90;;;;;;10025421;29;20215;-79
2022/12/29 11:31:41;;;;;;;18.00;10.13;;;7.30;99.90;;;;;;10033924;29;20286;-80
2022/12/29 11:37:06;;;;;;;20.10;11.63;;;7.30;99.90;;;;;;10041445;29;20206;-78
2022/12/29 11:42:56;;;;;;;17.07;10.40;;;7.30;99.90;;;;;;10040102;29;20240;-79
2022/12/29 11:48:19;;;;;;;12.37;7.87;;;7.30;99.90;;;;;;10004636;29;20250;-83
2022/12/29 11:53:47;;;;;;;31.13;15.23;;;7.30;99.90;;;;;;10025774;29;20261;-80
2022/12/29 11:59:27;;;;;;;35.70;18.23;;;7.30;99.90;;;;;;10036827;29;20419;-78
2022/12/29 12:04:57;;;;;;;22.17;12.97;;;7.30;99.90;;;;;;10050928;29;20206;-78
2022/12/29 12:10:27;;;;;;;22.63;11.90;;;7.40;99.90;;;;;;10037489;29;20226;-77
2022/12/29 12:16:14;;;;;;;9.53;6.60;;;7.40;99.90;;;;;;10026114;29;20261;-78
2022/12/29 12:21:41;;;;;;;13.53;8.97;;;7.40;99.90;;;;;;10011288;29;20244;-76
2022/12/29 12:27:30;;;;;;;9.23;6.53;;;7.50;99.90;;;;;;10003019;29;20230;-78
2022/12/29 12:33:18;;;;;;;23.83;13.90;;;7.50;99.90;;;;;;10039016;29;20509;-77
2022/12/29 12:38:55;;;;;;;15.23;8.43;;;7.50;99.90;;;;;;10073828;29;20223;-79
2022/12/29 12:44:28;;;;;;;19.97;11.87;;;7.60;99.90;;;;;;10057811;29;20217;-77
2022/12/29 12:50:15;;;;;;;17.53;9.40;;;7.60;99.90;;;;;;10072050;29;20261;-78
2022/12/29 12:56:07;;;;;;;9.33;5.77;;;7.60;99.90;;;;;;10061055;29;20303;-77
2022/12/29 13:01:30;;;;;;;12.97;7.10;;;7.70;99.90;;;;;;10074907;29;20415;-80
2022/12/29 13:07:15;;;;;;;19.03;10.37;;;7.80;99.90;;;;;;10071158;29;20238;-80
2022/12/29 13:12:42;;;;;;;26.27;18.17;;;7.80;99.90;;;;;;10064473;29;20436;-78
2022/12/29 13:18:37;;;;;;;25.33;14.77;;;7.80;99.90;;;;;;10036855;29;20221;-79
2022/12/29 13:23:58;;;;;;;46.47;21.57;;;7.80;99.90;;;;;;10036598;29;20218;-78
2022/12/29 13:30:08;;;;;;;25.20;15.17;;;7.70;99.90;;;;;;10037269;29;20291;-74
2022/12/29 13:35:44;;;;;;;20.53;10.33;;;7.90;99.90;;;;;;10108504;29;20328;-76
2022/12/29 13:41:11;;;;;;;11.40;6.60;;;7.80;99.90;;;;;;10109505;29;20288;-79
2022/12/29 13:46:52;;;;;;;11.97;7.77;;;7.80;99.90;;;;;;10107545;29;20233;-79
2022/12/29 13:52:39;;;;;;;17.13;11.67;;;7.80;99.90;;;;;;10058127;29;20220;-78
2022/12/29 13:58:27;;;;;;;10.97;7.33;;;7.80;99.90;;;;;;10090593;29;20240;-80
2022/12/29 14:03:54;;;;;;;9.80;6.63;;;7.80;99.90;;;;;;10110694;29;20251;-78
2022/12/29 14:09:47;;;;;;;12.23;7.97;;;7.70;99.90;;;;;;10043039;29;20249;-80
2022/12/29 14:15:08;;;;;;;12.23;8.87;;;7.60;99.90;;;;;;10036575;29;20213;-79
2022/12/29 14:20:37;;;;;;;12.50;8.57;;;7.60;99.90;;;;;;10037836;29;20211;-80
2022/12/29 14:26:05;;;;;;;15.77;10.50;;;7.60;99.90;;;;;;10047548;29;20210;-79
2022/12/29 14:31:29;;;;;;;32.73;12.00;;;7.60;99.90;;;;;;10034722;29;20222;-79
2022/12/29 14:37:01;;;;;;;10.00;6.83;;;7.60;99.90;;;;;;10040095;29;20242;-78
2022/12/29 14:42:23;;;;;;;18.23;11.67;;;7.70;99.90;;;;;;10072161;29;20443;-79
2022/12/29 14:47:49;;;;;;;24.70;13.23;;;7.70;99.90;;;;;;10057972;29;20563;-80
2022/12/29 14:53:43;;;;;;;31.40;16.80;;;7.60;99.90;;;;;;10078662;29;20210;-77
2022/12/29 14:59:09;;;;;;;32.53;18.87;;;7.50;99.90;;;;;;10049844;29;20206;-80
2022/12/29 15:04:32;;;;;;;24.17;14.73;;;7.40;99.90;;;;;;10062279;29;20217;-82
2022/12/29 15:09:59;;;;;;;24.23;13.50;;;7.30;99.90;;;;;;10041856;29;20230;-78
2022/12/29 15:15:25;;;;;;;21.70;15.10;;;7.30;99.90;;;;;;10056302;29;20508;-76
2022/12/29 15:20:54;;;;;;;22.53;14.07;;;7.30;99.90;;;;;;10059484;29;20204;-77
2022/12/29 15:26:21;;;;;;;23.07;13.10;;;7.30;99.90;;;;;;10064984;29;20276;-79
2022/12/29 15:31:48;;;;;;;26.53;16.17;;;7.30;99.90;;;;;;10053474;29;20267;-77
2022/12/29 15:37:09;;;;;;;48.63;24.23;;;7.30;99.90;;;;;;10060787;29;20496;-79
2022/12/29 15:42:47;;;;;;;75.10;28.83;;;7.40;99.90;;;;;;10063144;29;20348;-79
2022/12/29 15:48:19;;;;;;;47.17;18.20;;;7.40;99.90;;;;;;10049964;29;20280;-79
2022/12/29 15:53:41;;;;;;;39.27;15.23;;;7.40;99.90;;;;;;10064108;29;20402;-77
2022/12/29 15:59:02;;;;;;;31.90;16.43;;;7.40;99.90;;;;;;10047619;29;20198;-77
2022/12/29 16:04:27;;;;;;;25.87;13.00;;;7.50;99.90;;;;;;10079015;29;20237;-83
2022/12/29 16:09:55;;;;;;;38.73;16.47;;;7.50;99.90;;;;;;10048888;29;20309;-76
2022/12/29 16:15:16;;;;;;;39.23;17.40;;;7.60;99.90;;;;;;10017898;29;20203;-79
2022/12/29 16:20:40;;;;;;;31.80;17.57;;;7.60;99.90;;;;;;10043786;29;20199;-80
2022/12/29 16:26:03;;;;;;;37.43;18.53;;;7.60;99.90;;;;;;10037918;29;20218;-78
2022/12/29 16:31:59;;;;;;;28.00;12.70;;;7.60;99.90;;;;;;10040400;29;20443;-80
2022/12/29 16:37:32;;;;;;;46.73;23.87;;;7.60;99.90;;;;;;10036581;29;20270;-77
2022/12/29 16:43:00;;;;;;;49.80;24.80;;;7.70;99.90;;;;;;10044794;29;20231;-76
2022/12/29 16:48:21;;;;;;;16.47;8.47;;;7.60;99.90;;;;;;10045088;29;20238;-77
2022/12/29 16:53:53;;;;;;;24.20;10.57;;;7.60;99.90;;;;;;10043328;29;20457;-77
2022/12/29 16:59:35;;;;;;;13.20;7.77;;;7.80;99.90;;;;;;10043506;29;20203;-81
2022/12/29 17:04:57;;;;;;;20.03;8.83;;;7.90;99.90;;;;;;10042028;29;20210;-74
2022/12/29 17:10:18;;;;;;;10.47;5.53;;;8.00;99.90;;;;;;10041473;29;20241;-76
2022/12/29 17:15:39;;;;;;;13.40;6.23;;;8.00;99.90;;;;;;10042411;29;20201;-79
2022/12/29 17:21:01;;;;;;;21.27;8.80;;;7.90;99.90;;;;;;10042842;29;20258;-77
2022/12/29 17:26:22;;;;;;;16.47;8.07;;;7.90;99.90;;;;;;10044096;29;20203;-76
2022/12/29 17:31:43;;;;;;;17.37;8.43;;;7.80;99.90;;;;;;10041664;29;20210;-82
2022/12/29 17:37:23;;;;;;;18.40;8.80;;;7.80;99.90;;;;;;10027598;29;20237;-78
2022/12/29 17:42:46;;;;;;;13.87;6.77;;;7.70;99.90;;;;;;10054186;29;20228;-81
2022/12/29 17:48:16;;;;;;;13.37;6.63;;;7.70;99.90;;;;;;10041089;29;20230;-77
2022/12/29 17:53:37;;;;;;;21.40;11.07;;;7.60;99.90;;;;;;10040691;29;20206;-81
2022/12/29 17:58:58;;;;;;;39.33;18.13;;;7.60;99.90;;;;;;10040817;29;20392;-79
2022/12/29 18:04:19;;;;;;;23.30;12.43;;;7.50;99.90;;;;;;10041587;29;20240;-81
2022/12/29 18:09:40;;;;;;;36.00;16.20;;;7.50;99.90;;;;;;10040391;29;20310;-81
2022/12/29 18:15:02;;;;;;;31.97;12.73;;;7.60;99.90;;;;;;10043253;29;20191;-77
2022/12/29 18:20:24;;;;;;;24.30;11.40;;;7.60;99.90;;;;;;10054649;29;20235;-79
2022/12/29 18:25:52;;;;;;;14.10;6.87;;;7.50;99.90;;;;;;10054363;29;20262;-81
2022/12/29 18:31:20;;;;;;;19.20;7.77;;;7.50;99.90;;;;;;10066001;29;20219;-81
2022/12/29 18:36:41;;;;;;;16.33;8.87;;;7.50;99.90;;;;;;10068429;29;20258;-81
2022/12/29 18:42:04;;;;;;;14.37;7.37;;;7.50;99.90;;;;;;10092042;29;20300;-81
2022/12/29 18:47:25;;;;;;;10.50;5.20;;;7.40;99.90;;;;;;10090888;29;20226;-81
2022/12/29 18:52:47;;;;;;;20.37;7.77;;;7.40;99.90;;;;;;10058748;29;20214;-78
2022/12/29 18:58:07;;;;;;;16.20;8.40;;;7.30;99.90;;;;;;10053428;29;20198;-80
2022/12/29 19:03:28;;;;;;;16.07;7.50;;;7.30;99.90;;;;;;10052642;29;20201;-76
2022/12/29 19:08:49;;;;;;;18.03;7.23;;;7.20;99.90;;;;;;10038986;29;20331;-81
2022/12/29 19:14:18;;;;;;;17.47;7.17;;;7.20;99.90;;;;;;10053208;29;20272;-81
2022/12/29 19:19:42;;;;;;;15.80;7.90;;;7.20;99.90;;;;;;10066218;29;20218;-81
2022/12/29 19:25:03;;;;;;;15.03;8.33;;;7.20;99.90;;;;;;10054521;29;20217;-81
2022/12/29 19:30:25;;;;;;;18.90;9.47;;;7.20;99.90;;;;;;10046499;29;20233;-81
2022/12/29 19:35:46;;;;;;;16.70;8.47;;;7.20;99.90;;;;;;10046309;29;20530;-81
2022/12/29 19:41:07;;;;;;;30.53;12.57;;;7.30;99.90;;;;;;10032541;29;20487;-81
2022/12/29 19:46:29;;;;;;;22.37;12.80;;;7.20;99.90;;;;;;10045415;29;20199;-82
2022/12/29 19:51:51;;;;;;;39.17;21.77;;;7.10;99.90;;;;;;10044348;29;20239;-82
2022/12/29 19:57:13;;;;;;;30.60;16.30;;;7.00;99.90;;;;;;10045319;29;20206;-81
2022/12/29 20:02:36;;;;;;;41.43;23.63;;;7.00;99.90;;;;;;10043935;29;20205;-81
2022/12/29 20:07:57;;;;;;;21.90;12.67;;;6.90;99.90;;;;;;10006981;29;20223;-81
2022/12/29 20:13:19;;;;;;;30.60;15.00;;;7.00;99.90;;;;;;10031795;29;20202;-82
2022/12/29 20:18:41;;;;;;;17.07;9.00;;;6.90;99.90;;;;;;10057839;29;20319;-82
2022/12/29 20:24:02;;;;;;;13.50;7.77;;;6.90;99.90;;;;;;10044606;29;20203;-81
2022/12/29 20:29:23;;;;;;;16.07;6.50;;;6.80;99.90;;;;;;10044584;29;20234;-76
2022/12/29 20:34:45;;;;;;;16.10;7.10;;;6.80;99.90;;;;;;10043505;29;20207;-75
2022/12/29 20:40:07;;;;;;;20.87;10.40;;;6.80;99.90;;;;;;10042773;29;20241;-78
2022/12/29 20:45:28;;;;;;;15.30;7.80;;;6.80;99.90;;;;;;10041851;29;20206;-78
2022/12/29 20:50:49;;;;;;;17.33;6.77;;;6.80;99.90;;;;;;10020481;29;20245;-79
2022/12/29 20:56:15;;;;;;;19.80;8.17;;;6.80;99.90;;;;;;10035523;29;20262;-77
2022/12/29 21:01:36;;;;;;;14.23;6.03;;;6.90;99.90;;;;;;10042602;29;20540;-76
2022/12/29 21:06:57;;;;;;;23.70;9.83;;;6.90;99.90;;;;;;10029509;29;20698;-79
2022/12/29 21:12:18;;;;;;;14.00;6.83;;;6.90;99.90;;;;;;10043189;29;20205;-81
2022/12/29 21:17:40;;;;;;;19.33;8.37;;;7.00;99.90;;;;;;10041700;29;20289;-81
2022/12/29 21:23:02;;;;;;;17.57;8.07;;;7.00;99.90;;;;;;10042288;29;20223;-82
2022/12/29 21:28:24;;;;;;;17.23;8.23;;;7.00;99.90;;;;;;10042800;29;20430;-81
2022/12/29 21:33:45;;;;;;;18.17;9.43;;;7.00;99.90;;;;;;10057254;29;20285;-79
2022/12/29 21:39:06;;;;;;;18.53;8.40;;;7.00;99.90;;;;;;10041749;29;20210;-82
2022/12/29 21:50:07;;;;;;;13.93;6.90;;;7.00;99.90;;;;;;10039205;29;20246;-82
2022/12/29 21:55:29;;;;;;;11.57;5.77;;;7.10;99.90;;;;;;10041028;29;20504;-81
2022/12/29 22:17:53;;;;;;;10.60;5.93;;;7.30;99.90;;;;;;10040601;29;20202;-81
2022/12/29 22:23:14;;;;;;;17.80;7.23;;;7.30;99.90;;;;;;10056074;29;20256;-80
2022/12/29 22:28:41;;;;;;;14.50;5.60;;;7.20;99.90;;;;;;10053452;29;20532;-81
2022/12/29 22:34:04;;;;;;;12.93;5.90;;;7.20;99.90;;;;;;10039956;29;20202;-81
2022/12/29 22:39:25;;;;;;;7.87;4.50;;;7.20;99.90;;;;;;10041039;29;20213;-80
2022/12/29 22:44:46;;;;;;;10.77;4.87;;;7.20;99.90;;;;;;10040866;29;20201;-76
2022/12/29 22:50:07;;;;;;;13.27;6.20;;;7.30;99.90;;;;;;10055473;29;20237;-80
2022/12/29 22:55:28;;;;;;;21.13;6.73;;;7.20;99.90;;;;;;10040676;29;20682;-79
2022/12/29 23:00:49;;;;;;;23.07;9.50;;;7.10;99.90;;;;;;10040037;29;20211;-81
2022/12/29 23:06:12;;;;;;;23.30;10.63;;;6.90;99.90;;;;;;10062577;29;20206;-81
2022/12/29 23:11:34;;;;;;;15.33;7.87;;;6.80;99.90;;;;;;10046394;29;20302;-77
2022/12/29 23:16:54;;;;;;;15.40;7.30;;;6.70;99.90;;;;;;10046160;29;20509;-80
2022/12/29 23:22:15;;;;;;;12.93;5.97;;;6.60;99.90;;;;;;10033537;29;20214;-82
2022/12/29 23:27:36;;;;;;;9.70;4.60;;;6.60;99.90;;;;;;10046214;29;20250;-82
2022/12/29 23:32:58;;;;;;;6.70;3.67;;;6.50;99.90;;;;;;10044777;29;20454;-81
2022/12/29 23:38:19;;;;;;;13.63;4.17;;;6.50;99.90;;;;;;10046740;29;20198;-81
2022/12/29 23:43:40;;;;;;;8.27;4.37;;;6.50;99.90;;;;;;10046585;29;20242;-80
2022/12/29 23:49:01;;;;;;;8.40;3.33;;;6.50;99.90;;;;;;10045558;29;20230;-81
2022/12/29 23:54:22;;;;;;;5.70;3.40;;;6.60;99.90;;;;;;10045441;29;20208;-80
2022/12/29 23:59:43;;;;;;;8.90;4.50;;;6.60;99.90;;;;;;10046087;29;20516;-76
